createdAt,value
2024-01-06T00:00:42.349Z,101111.31
2024-01-06T00:03:11.216Z,101120.56
2024-01-06T00:05:39.522Z,101120.34
2024-01-06T00:08:08.173Z,101122.94
2024-01-06T00:10:36.305Z,101119.50
2024-01-06T00:13:04.718Z,101123.06
2024-01-06T00:15:33.301Z,101116.50
2024-01-06T00:18:01.918Z,101122.28
2024-01-06T00:20:30.214Z,101131.59
2024-01-06T00:23:00.792Z,101127.91
2024-01-06T00:25:32.589Z,101148.97
2024-01-06T00:28:00.640Z,101133.13
2024-01-06T00:30:28.862Z,101138.97
2024-01-06T00:32:57.162Z,101141.47
2024-01-06T00:35:25.716Z,101151.59
2024-01-06T00:37:54.122Z,101144.84
2024-01-06T00:40:22.403Z,101146.38
2024-01-06T00:42:50.945Z,101144.75
2024-01-06T00:45:20.450Z,101143.78
2024-01-06T00:47:49.371Z,101143.56
2024-01-06T00:50:19.303Z,101153.78
2024-01-06T00:52:49.953Z,101153.66
2024-01-06T00:55:18.363Z,101159.94
2024-01-06T00:57:54.081Z,101160.91
2024-01-06T01:00:22.717Z,101152.44
2024-01-06T01:02:52.369Z,101165.44
2024-01-06T01:05:20.843Z,101165.63
2024-01-06T01:07:51.619Z,101174.47
2024-01-06T01:10:19.860Z,101158.63
2024-01-06T01:12:47.914Z,101162.75
2024-01-06T01:15:16.275Z,101164.41
2024-01-06T01:17:44.640Z,101155.84
2024-01-06T01:20:14.530Z,101155.94
2024-01-06T01:22:42.732Z,101170.63
2024-01-06T01:25:16.206Z,101161.50
2024-01-06T01:27:44.583Z,101150.25
2024-01-06T01:30:13.927Z,101162.63
2024-01-06T01:32:42.163Z,101163.19
2024-01-06T01:35:11.329Z,101157.25
2024-01-06T01:37:42.876Z,101180.66
2024-01-06T01:40:12.903Z,101183.81
2024-01-06T01:42:43.554Z,101171.13
2024-01-06T01:45:13.587Z,101166.03
2024-01-06T01:47:48.890Z,101157.56
2024-01-06T01:50:17.081Z,101154.91
2024-01-06T01:52:45.645Z,101166.41
2024-01-06T01:55:14.376Z,101153.56
2024-01-06T01:57:44.040Z,101153.16
2024-01-06T02:00:13.584Z,101158.22
2024-01-06T02:02:43.752Z,101151.50
2024-01-06T02:05:12.871Z,101162.81
2024-01-06T02:07:41.290Z,101164.34
2024-01-06T02:10:11.036Z,101171.91
2024-01-06T02:12:39.322Z,101165.75
2024-01-06T02:15:07.894Z,101166.53
2024-01-06T02:17:36.391Z,101160.47
2024-01-06T02:20:05.587Z,101165.25
2024-01-06T02:22:34.127Z,101180.25
2024-01-06T02:25:02.617Z,101176.00
2024-01-06T02:27:32.677Z,101171.00
2024-01-06T02:30:00.944Z,101160.63
2024-01-06T02:32:29.307Z,101173.19
2024-01-06T02:34:57.536Z,101169.81
2024-01-06T02:37:26.845Z,101176.34
2024-01-06T02:39:55.530Z,101166.25
2024-01-06T02:42:26.293Z,101171.03
2024-01-06T02:44:54.617Z,101179.06
2024-01-06T02:47:23.024Z,101173.13
2024-01-06T02:49:51.831Z,101169.44
2024-01-06T02:52:19.947Z,101174.41
2024-01-06T02:54:48.213Z,101187.88
2024-01-06T02:57:16.780Z,101182.78
2024-01-06T02:59:45.456Z,101190.13
2024-01-06T03:02:13.810Z,101182.25
2024-01-06T03:04:41.875Z,101197.97
2024-01-06T03:07:09.987Z,101189.72
2024-01-06T03:09:38.360Z,101201.22
2024-01-06T03:12:07.942Z,101187.13
2024-01-06T03:14:39.396Z,101192.03
2024-01-06T03:17:07.549Z,101199.84
2024-01-06T03:19:35.865Z,101195.94
2024-01-06T03:22:03.966Z,101191.91
2024-01-06T03:24:32.978Z,101190.72
2024-01-06T03:27:02.321Z,101194.88
2024-01-06T03:29:30.745Z,101204.84
2024-01-06T03:31:59.450Z,101178.94
2024-01-06T03:34:28.878Z,101195.28
2024-01-06T03:36:57.082Z,101200.19
2024-01-06T03:39:25.246Z,101200.06
2024-01-06T03:41:56.174Z,101196.69
2024-01-06T03:44:24.302Z,101194.88
2024-01-06T03:46:52.388Z,101201.59
2024-01-06T03:49:22.615Z,101195.81
2024-01-06T03:51:58.359Z,101179.16
2024-01-06T03:54:26.574Z,101196.69
2024-01-06T03:56:54.724Z,101181.66
2024-01-06T03:59:27.247Z,101191.06
2024-01-06T04:01:55.943Z,101191.16
2024-01-06T04:04:29.611Z,101178.81
2024-01-06T04:06:58.261Z,101182.94
2024-01-06T04:09:30.413Z,101194.06
2024-01-06T04:12:00.527Z,101189.22
2024-01-06T04:14:28.475Z,101190.06
2024-01-06T04:16:59.012Z,101184.09
2024-01-06T04:19:31.761Z,101175.25
2024-01-06T04:21:59.657Z,101184.44
2024-01-06T04:24:32.612Z,101175.25
2024-01-06T04:27:01.259Z,101186.06
2024-01-06T04:29:31.618Z,101186.72
2024-01-06T04:32:00.692Z,101196.69
2024-01-06T04:34:29.007Z,101199.94
2024-01-06T04:36:57.099Z,101181.75
2024-01-06T04:39:25.845Z,101188.34
2024-01-06T04:41:54.071Z,101184.00
2024-01-06T04:44:23.106Z,101192.47
2024-01-06T04:46:51.315Z,101192.47
2024-01-06T04:49:19.802Z,101188.25
2024-01-06T04:51:48.197Z,101188.13
2024-01-06T04:54:16.341Z,101198.09
2024-01-06T04:56:44.395Z,101187.91
2024-01-06T04:59:12.406Z,101185.31
2024-01-06T05:01:40.569Z,101183.81
2024-01-06T05:04:08.674Z,101191.16
2024-01-06T05:06:36.846Z,101190.31
2024-01-06T05:09:05.649Z,101194.41
2024-01-06T05:11:33.704Z,101198.63
2024-01-06T05:14:01.739Z,101191.81
2024-01-06T05:16:29.749Z,101188.56
2024-01-06T05:18:58.040Z,101184.44
2024-01-06T05:21:26.246Z,101179.44
2024-01-06T05:23:54.345Z,101200.06
2024-01-06T05:26:22.414Z,101180.09
2024-01-06T05:28:50.860Z,101188.56
2024-01-06T05:31:18.915Z,101155.19
2024-01-06T05:33:47.213Z,101205.59
2024-01-06T05:36:15.446Z,101198.88
2024-01-06T05:38:43.444Z,101195.28
2024-01-06T05:41:11.477Z,101195.53
2024-01-06T05:43:40.205Z,101194.72
2024-01-06T05:46:09.028Z,101209.69
2024-01-06T05:48:37.180Z,101206.75
2024-01-06T05:51:08.372Z,101233.66
2024-01-06T05:53:38.389Z,101212.41
2024-01-06T05:56:06.645Z,101231.69
2024-01-06T05:58:34.617Z,101231.56
2024-01-06T06:01:02.958Z,101258.34
2024-01-06T06:03:31.069Z,101238.16
2024-01-06T06:05:59.192Z,101250.53
2024-01-06T06:08:27.284Z,101254.41
2024-01-06T06:11:06.870Z,101256.16
2024-01-06T06:13:34.990Z,101262.88
2024-01-06T06:16:02.968Z,101258.41
2024-01-06T06:18:31.109Z,101267.88
2024-01-06T06:20:59.361Z,101287.16
2024-01-06T06:23:28.768Z,101292.22
2024-01-06T06:25:56.781Z,101301.44
2024-01-06T06:28:24.867Z,101286.72
2024-01-06T06:30:53.010Z,101290.22
2024-01-06T06:33:21.245Z,101284.44
2024-01-06T06:35:49.426Z,101294.53
2024-01-06T06:38:17.410Z,101284.03
2024-01-06T06:40:45.388Z,101291.50
2024-01-06T06:43:14.225Z,101290.66
2024-01-06T06:45:43.278Z,101294.97
2024-01-06T06:48:11.579Z,101274.16
2024-01-06T06:50:39.869Z,101301.91
2024-01-06T06:53:07.934Z,101307.13
2024-01-06T06:55:35.972Z,101304.53
2024-01-06T06:58:04.106Z,101316.25
2024-01-06T07:00:32.161Z,101312.22
2024-01-06T07:03:00.497Z,101317.97
2024-01-06T07:05:28.772Z,101332.91
2024-01-06T07:07:56.900Z,101322.94
2024-01-06T07:10:25.203Z,101326.41
2024-01-06T07:12:53.364Z,101333.22
2024-01-06T07:15:21.401Z,101349.72
2024-01-06T07:17:49.495Z,101338.75
2024-01-06T07:20:17.750Z,101331.03
2024-01-06T07:22:45.772Z,101340.91
2024-01-06T07:25:13.769Z,101342.31
2024-01-06T07:27:41.861Z,101352.03
2024-01-06T07:30:10.315Z,101355.81
2024-01-06T07:32:38.369Z,101348.44
2024-01-06T07:35:08.137Z,101362.31
2024-01-06T07:37:36.645Z,101377.16
2024-01-06T07:40:04.774Z,101373.03
2024-01-06T07:42:33.516Z,101372.06
2024-01-06T07:45:01.519Z,101372.69
2024-01-06T07:47:29.545Z,101378.00
2024-01-06T07:49:59.208Z,101380.28
2024-01-06T07:52:27.215Z,101381.69
2024-01-06T07:54:55.402Z,101376.16
2024-01-06T07:57:23.499Z,101399.47
2024-01-06T07:59:52.649Z,101397.81
2024-01-06T08:02:20.563Z,101423.13
2024-01-06T08:04:48.648Z,101408.19
2024-01-06T08:07:16.717Z,101420.66
2024-01-06T08:09:45.091Z,101412.56
2024-01-06T08:12:13.798Z,101418.16
2024-01-06T08:14:41.725Z,101412.31
2024-01-06T08:17:09.753Z,101431.16
2024-01-06T08:19:37.927Z,101424.88
2024-01-06T08:22:06.076Z,101441.56
2024-01-06T08:24:34.013Z,101439.81
2024-01-06T08:27:02.185Z,101451.66
2024-01-06T08:29:30.126Z,101449.41
2024-01-06T08:31:58.414Z,101445.16
2024-01-06T08:34:28.550Z,101453.53
2024-01-06T08:36:57.403Z,101453.53
2024-01-06T08:39:26.482Z,101459.38
2024-01-06T08:41:54.405Z,101446.25
2024-01-06T08:44:22.367Z,101461.97
2024-01-06T08:46:50.319Z,101461.75
2024-01-06T08:49:19.036Z,101464.34
2024-01-06T08:51:47.472Z,101476.91
2024-01-06T08:54:15.673Z,101483.13
2024-01-06T08:56:43.670Z,101473.78
2024-01-06T08:59:11.612Z,101483.00
2024-01-06T09:01:40.776Z,101492.97
2024-01-06T09:04:08.952Z,101481.91
2024-01-06T09:06:37.074Z,101503.81
2024-01-06T09:09:05.206Z,101478.53
2024-01-06T09:11:33.125Z,101494.59
2024-01-06T09:14:01.263Z,101495.09
2024-01-06T09:16:29.269Z,101515.03
2024-01-06T09:18:57.396Z,101523.03
2024-01-06T09:21:25.392Z,101529.41
2024-01-06T09:23:53.378Z,101511.13
2024-01-06T09:26:21.601Z,101528.41
2024-01-06T09:28:49.733Z,101523.31
2024-01-06T09:31:18.033Z,101543.00
2024-01-06T09:33:46.229Z,101552.22
2024-01-06T09:36:15.719Z,101553.97
2024-01-06T09:38:43.759Z,101561.69
2024-01-06T09:41:11.856Z,101555.22
2024-01-06T09:43:40.309Z,101554.97
2024-01-06T09:46:17.099Z,101569.69
2024-01-06T09:48:45.575Z,101578.41
2024-01-06T09:51:14.018Z,101580.66
2024-01-06T09:53:50.229Z,101585.03
2024-01-06T09:56:19.308Z,101588.00
2024-01-06T09:58:47.474Z,101587.38
2024-01-06T10:01:16.899Z,101603.81
2024-01-06T10:03:47.224Z,101604.31
2024-01-06T10:06:20.129Z,101614.53
2024-01-06T10:08:52.105Z,101620.25
2024-01-06T10:11:24.894Z,101622.63
2024-01-06T10:13:53.512Z,101625.97
2024-01-06T10:16:22.014Z,101647.81
2024-01-06T10:18:53.523Z,101649.75
2024-01-06T10:21:26.962Z,101653.16
2024-01-06T10:23:56.923Z,101665.38
2024-01-06T10:26:25.078Z,101678.91
2024-01-06T10:28:53.077Z,101666.56
2024-01-06T10:31:21.347Z,101673.28
2024-01-06T10:33:50.173Z,101682.50
2024-01-06T10:36:19.152Z,101666.81
2024-01-06T10:38:47.608Z,101684.50
2024-01-06T10:41:18.465Z,101673.78
2024-01-06T10:43:47.067Z,101686.59
2024-01-06T10:46:17.648Z,101684.00
2024-01-06T10:48:47.826Z,101682.63
2024-01-06T10:51:17.196Z,101702.19
2024-01-06T10:53:45.598Z,101704.53
2024-01-06T10:56:13.787Z,101712.00
2024-01-06T10:58:49.829Z,101720.38
2024-01-06T11:01:25.849Z,101721.38
2024-01-06T11:03:57.300Z,101732.09
2024-01-06T11:06:25.886Z,101734.56
2024-01-06T11:08:56.982Z,101734.56
2024-01-06T11:11:25.622Z,101751.38
2024-01-06T11:13:53.552Z,101745.41
2024-01-06T11:16:38.956Z,101753.88
2024-01-06T11:19:26.540Z,101771.06
2024-01-06T11:21:54.950Z,101766.19
2024-01-06T11:24:27.709Z,101782.78
2024-01-06T11:26:59.096Z,101774.78
2024-01-06T11:29:29.376Z,101778.91
2024-01-06T11:32:19.766Z,101779.28
2024-01-06T11:34:59.287Z,101780.03
2024-01-06T11:37:40.158Z,101789.09
2024-01-06T11:40:25.511Z,101800.81
2024-01-06T11:43:09.712Z,101813.44
2024-01-06T11:45:39.747Z,101805.06
2024-01-06T11:48:10.145Z,101809.03
2024-01-06T11:50:40.151Z,101813.53
2024-01-06T11:53:13.589Z,101816.78
2024-01-06T11:55:41.842Z,101832.00
2024-01-06T11:58:10.006Z,101838.84
2024-01-06T12:00:41.841Z,101832.22
2024-01-06T12:03:11.149Z,101835.63
2024-01-06T12:05:39.195Z,101842.84
2024-01-06T12:08:09.351Z,101839.72
2024-01-06T12:10:38.834Z,101844.19
2024-01-06T12:13:10.835Z,101844.72
2024-01-06T12:15:42.189Z,101853.06
2024-01-06T12:18:11.158Z,101859.69
2024-01-06T12:20:39.326Z,101840.97
2024-01-06T12:23:08.049Z,101842.44
2024-01-06T12:25:40.559Z,101867.88
2024-01-06T12:28:10.131Z,101870.63
2024-01-06T12:30:38.416Z,101882.00
2024-01-06T12:33:06.767Z,101883.13
2024-01-06T12:35:36.241Z,101883.34
2024-01-06T12:38:08.769Z,101887.06
2024-01-06T12:40:40.162Z,101892.56
2024-01-06T12:43:08.689Z,101888.34
2024-01-06T12:45:36.925Z,101891.31
2024-01-06T12:48:05.257Z,101902.53
2024-01-06T12:50:33.275Z,101905.28
2024-01-06T12:53:01.419Z,101912.25
2024-01-06T12:55:29.405Z,101909.16
2024-01-06T12:57:57.713Z,101928.69
2024-01-06T13:00:25.844Z,101937.47
2024-01-06T13:02:54.285Z,101931.94
2024-01-06T13:05:22.561Z,101936.56
2024-01-06T13:07:50.902Z,101946.66
2024-01-06T13:10:19.114Z,101961.81
2024-01-06T13:12:47.202Z,101959.59
2024-01-06T13:15:15.409Z,101953.94
2024-01-06T13:17:43.761Z,101960.16
2024-01-06T13:20:12.207Z,101978.00
2024-01-06T13:22:42.376Z,101977.53
2024-01-06T13:25:10.956Z,101977.25
2024-01-06T13:27:39.301Z,101984.38
2024-01-06T13:30:08.503Z,101991.22
2024-01-06T13:32:36.737Z,101998.56
2024-01-06T13:35:07.265Z,102002.16
2024-01-06T13:37:35.406Z,102018.25
2024-01-06T13:40:03.439Z,102035.22
2024-01-06T13:42:31.527Z,102034.59
2024-01-06T13:45:02.343Z,102036.47
2024-01-06T13:47:30.635Z,102048.44
2024-01-06T13:49:59.434Z,102034.44
2024-01-06T13:52:28.366Z,102052.41
2024-01-06T13:54:56.426Z,102055.03
2024-01-06T13:57:24.590Z,102075.53
2024-01-06T13:59:52.566Z,102074.28
2024-01-06T14:02:20.683Z,102087.50
2024-01-06T14:04:48.825Z,102087.75
2024-01-06T14:07:20.644Z,102083.22
2024-01-06T14:09:48.703Z,102095.66
2024-01-06T14:12:17.202Z,102091.75
2024-01-06T14:14:45.125Z,102091.28
2024-01-06T14:17:13.099Z,102107.19
2024-01-06T14:19:41.949Z,102099.06
2024-01-06T14:22:10.994Z,102106.38
2024-01-06T14:24:38.932Z,102118.44
2024-01-06T14:27:07.138Z,102124.09
2024-01-06T14:29:35.053Z,102141.22
2024-01-06T14:32:03.768Z,102153.69
2024-01-06T14:34:32.413Z,102159.53
2024-01-06T14:37:00.526Z,102160.84
2024-01-06T14:39:28.749Z,102168.38
2024-01-06T14:41:56.836Z,102165.25
2024-01-06T14:44:26.124Z,102169.84
2024-01-06T14:46:54.779Z,102170.31
2024-01-06T14:49:22.992Z,102158.50
2024-01-06T14:51:51.000Z,102156.81
2024-01-06T14:54:19.219Z,102165.22
2024-01-06T14:56:48.332Z,102164.84
2024-01-06T14:59:18.489Z,102162.72
2024-01-06T15:01:49.196Z,102165.22
2024-01-06T15:04:18.460Z,102161.13
2024-01-06T15:06:46.771Z,102149.56
2024-01-06T15:09:15.060Z,102153.72
2024-01-06T15:11:43.059Z,102142.25
2024-01-06T15:14:10.999Z,102136.19
2024-01-06T15:16:39.048Z,102127.84
2024-01-06T15:19:09.673Z,102125.72
2024-01-06T15:21:38.604Z,102119.97
2024-01-06T15:24:07.120Z,102124.53
2024-01-06T15:26:35.835Z,102112.69
2024-01-06T15:29:03.904Z,102131.75
2024-01-06T15:31:33.039Z,102134.81
2024-01-06T15:34:01.393Z,102122.63
2024-01-06T15:36:29.503Z,102128.81
2024-01-06T15:38:57.561Z,102124.69
2024-01-06T15:41:25.492Z,102123.56
2024-01-06T15:43:53.487Z,102122.06
2024-01-06T15:46:22.522Z,102111.81
2024-01-06T15:48:50.874Z,102110.94
2024-01-06T15:51:18.970Z,102108.97
2024-01-06T15:53:47.055Z,102106.53
2024-01-06T15:56:15.118Z,102103.72
2024-01-06T15:58:45.536Z,102099.13
2024-01-06T16:01:13.855Z,102095.22
2024-01-06T16:03:42.441Z,102100.91
2024-01-06T16:06:11.137Z,102106.81
2024-01-06T16:08:39.171Z,102106.88
2024-01-06T16:11:07.226Z,102111.81
2024-01-06T16:13:35.232Z,102122.47
2024-01-06T16:16:03.936Z,102100.88
2024-01-06T16:18:32.592Z,102102.94
2024-01-06T16:21:03.168Z,102122.13
2024-01-06T16:23:32.415Z,102105.22
2024-01-06T16:26:00.386Z,102117.56
2024-01-06T16:28:28.399Z,102122.94
2024-01-06T16:30:56.503Z,102110.28
2024-01-06T16:33:24.703Z,102106.63
2024-01-06T16:35:52.781Z,102122.47
2024-01-06T16:38:20.825Z,102118.22
2024-01-06T16:40:48.810Z,102109.69
2024-01-06T16:43:16.730Z,102122.63
2024-01-06T16:45:44.735Z,102120.72
2024-01-06T16:48:12.815Z,102133.44
2024-01-06T16:50:42.649Z,102118.22
2024-01-06T16:53:12.010Z,102122.16
2024-01-06T16:55:40.000Z,102113.00
2024-01-06T16:58:08.268Z,102103.38
2024-01-06T17:00:36.567Z,102112.47
2024-01-06T17:03:05.593Z,102122.16
2024-01-06T17:05:33.592Z,102108.41
2024-01-06T17:08:02.019Z,102104.28
2024-01-06T17:10:29.968Z,102103.75
2024-01-06T17:12:57.972Z,102113.00
2024-01-06T17:15:28.761Z,102115.28
2024-01-06T17:17:57.110Z,102112.69
2024-01-06T17:20:25.446Z,102112.03
2024-01-06T17:22:53.600Z,102096.44
2024-01-06T17:25:21.645Z,102106.56
2024-01-06T17:27:49.762Z,102104.84
2024-01-06T17:30:19.365Z,102111.59
2024-01-06T17:32:47.538Z,102097.22
2024-01-06T17:35:15.748Z,102090.44
2024-01-06T17:37:43.914Z,102087.84
2024-01-06T17:40:12.548Z,102111.50
2024-01-06T17:42:40.626Z,102105.72
2024-01-06T17:45:09.149Z,102106.03
2024-01-06T17:47:39.122Z,102098.72
2024-01-06T17:50:07.514Z,102101.31
2024-01-06T17:52:35.723Z,102117.69
2024-01-06T17:55:04.390Z,102121.28
2024-01-06T17:57:36.583Z,102117.91
2024-01-06T18:00:05.770Z,102133.16
2024-01-06T18:02:36.223Z,102128.13
2024-01-06T18:05:06.977Z,102125.94
2024-01-06T18:07:35.065Z,102132.81
2024-01-06T18:10:05.322Z,102129.91
2024-01-06T18:12:34.957Z,102128.97
2024-01-06T18:15:03.095Z,102125.41
2024-01-06T18:17:31.073Z,102133.91
2024-01-06T18:19:59.111Z,102132.00
2024-01-06T18:22:27.076Z,102137.38
2024-01-06T18:24:57.256Z,102131.88
2024-01-06T18:27:25.628Z,102128.22
2024-01-06T18:29:53.795Z,102126.84
2024-01-06T18:32:21.796Z,102136.25
2024-01-06T18:34:49.983Z,102133.75
2024-01-06T18:37:18.478Z,102126.88
2024-01-06T18:39:46.648Z,102138.19
2024-01-06T18:42:19.611Z,102138.63
2024-01-06T18:44:47.507Z,102136.75
2024-01-06T18:47:16.973Z,102128.91
2024-01-06T18:49:45.426Z,102137.31
2024-01-06T18:52:13.619Z,102121.84
2024-01-06T18:54:42.606Z,102128.28
2024-01-06T18:57:15.591Z,102135.25
2024-01-06T18:59:43.724Z,102138.53
2024-01-06T19:02:12.865Z,102131.31
2024-01-06T19:04:41.254Z,102130.44
2024-01-06T19:07:09.426Z,102123.75
2024-01-06T19:09:37.652Z,102135.53
2024-01-06T19:12:07.266Z,102144.53
2024-01-06T19:14:37.329Z,102141.38
2024-01-06T19:17:05.736Z,102149.81
2024-01-06T19:19:36.633Z,102155.78
2024-01-06T19:22:04.740Z,102164.16
2024-01-06T19:24:39.990Z,102177.78
2024-01-06T19:27:11.475Z,102179.34
2024-01-06T19:29:44.492Z,102179.28
2024-01-06T19:32:12.905Z,102182.72
2024-01-06T19:34:42.956Z,102179.63
2024-01-06T19:37:11.562Z,102183.66
2024-01-06T19:39:39.775Z,102179.50
2024-01-06T19:42:08.754Z,102183.25
2024-01-06T19:44:36.810Z,102180.56
2024-01-06T19:47:05.276Z,102188.06
2024-01-06T19:49:34.364Z,102183.81
2024-01-06T19:52:03.492Z,102185.81
2024-01-06T19:54:34.100Z,102180.72
2024-01-06T19:57:02.568Z,102183.31
2024-01-06T19:59:30.531Z,102190.81
2024-01-06T20:01:59.089Z,102196.56
2024-01-06T20:04:28.277Z,102203.31
2024-01-06T20:06:56.458Z,102212.56
2024-01-06T20:09:24.788Z,102209.22
2024-01-06T20:11:52.799Z,102222.44
2024-01-06T20:14:20.842Z,102222.81
2024-01-06T20:16:49.162Z,102230.31
2024-01-06T20:19:17.450Z,102230.94
2024-01-06T20:21:45.550Z,102228.94
2024-01-06T20:24:13.946Z,102242.69
2024-01-06T20:26:42.235Z,102245.69
2024-01-06T20:29:10.170Z,102249.41
2024-01-06T20:31:39.009Z,102241.91
2024-01-06T20:34:07.293Z,102247.66
2024-01-06T20:36:35.383Z,102258.88
2024-01-06T20:39:03.540Z,102270.00
2024-01-06T20:41:31.541Z,102263.81
2024-01-06T20:44:00.380Z,102278.91
2024-01-06T20:46:31.013Z,102269.47
2024-01-06T20:48:59.176Z,102279.91
2024-01-06T20:51:27.428Z,102274.28
2024-01-06T20:53:55.558Z,102271.41
2024-01-06T20:56:24.415Z,102265.91
2024-01-06T20:58:53.270Z,102268.84
2024-01-06T21:01:21.569Z,102262.19
2024-01-06T21:03:53.287Z,102268.56
2024-01-06T21:06:21.802Z,102260.53
2024-01-06T21:08:50.306Z,102261.63
2024-01-06T21:11:18.338Z,102256.09
2024-01-06T21:13:46.644Z,102247.56
2024-01-06T21:16:15.540Z,102247.63
2024-01-06T21:18:43.867Z,102250.81
2024-01-06T21:21:17.550Z,102233.75
2024-01-06T21:23:49.046Z,102235.44
2024-01-06T21:26:18.206Z,102252.06
2024-01-06T21:28:48.082Z,102249.50
2024-01-06T21:31:16.977Z,102248.38
2024-01-06T21:33:49.550Z,102237.44
2024-01-06T21:36:18.373Z,102240.63
2024-01-06T21:38:46.704Z,102231.44
2024-01-06T21:41:15.662Z,102225.34
2024-01-06T21:43:43.738Z,102224.06
2024-01-06T21:46:11.936Z,102218.81
2024-01-06T21:48:40.568Z,102228.22
2024-01-06T21:51:08.612Z,102222.38
2024-01-06T21:53:36.843Z,102219.91
2024-01-06T21:56:05.126Z,102214.09
2024-01-06T21:58:33.249Z,102217.47
2024-01-06T22:01:01.332Z,102222.88
2024-01-06T22:03:29.483Z,102219.50
2024-01-06T22:05:58.062Z,102224.81
2024-01-06T22:08:26.077Z,102212.38
2024-01-06T22:10:54.243Z,102211.06
2024-01-06T22:13:22.384Z,102209.47
2024-01-06T22:15:50.433Z,102210.63
2024-01-06T22:18:18.711Z,102211.69
2024-01-06T22:20:47.192Z,102209.22
2024-01-06T22:23:15.258Z,102216.06
2024-01-06T22:25:43.586Z,102219.88
2024-01-06T22:28:11.675Z,102215.75
2024-01-06T22:30:40.045Z,102227.72
2024-01-06T22:33:08.620Z,102221.88
2024-01-06T22:35:37.540Z,102234.28
2024-01-06T22:38:05.764Z,102231.66
2024-01-06T22:40:34.107Z,102225.22
2024-01-06T22:43:02.686Z,102236.59
2024-01-06T22:45:32.321Z,102231.03
2024-01-06T22:48:00.602Z,102241.38
2024-01-06T22:50:28.757Z,102235.50
2024-01-06T22:52:57.345Z,102231.84
2024-01-06T22:55:25.498Z,102228.47
2024-01-06T22:57:53.723Z,102219.41
2024-01-06T23:00:31.397Z,102234.47
2024-01-06T23:02:59.598Z,102239.81
2024-01-06T23:05:27.704Z,102234.56
2024-01-06T23:07:56.348Z,102228.72
2024-01-06T23:10:24.408Z,102217.94
2024-01-06T23:12:52.499Z,102199.78
2024-01-06T23:15:21.000Z,102215.91
2024-01-06T23:17:49.214Z,102228.78
2024-01-06T23:20:17.420Z,102216.81
2024-01-06T23:22:46.138Z,102210.56
2024-01-06T23:25:14.642Z,102197.56
2024-01-06T23:27:42.947Z,102209.25
2024-01-06T23:30:11.652Z,102212.47
2024-01-06T23:32:40.025Z,102204.63
2024-01-06T23:35:08.564Z,102190.44
2024-01-06T23:37:40.221Z,102202.59
2024-01-06T23:40:10.171Z,102191.50
2024-01-06T23:42:38.402Z,102192.38
2024-01-06T23:45:06.793Z,102189.44
2024-01-06T23:47:35.518Z,102187.41
2024-01-06T23:50:05.254Z,102183.06
2024-01-06T23:52:33.413Z,102188.84
2024-01-06T23:55:11.027Z,102198.47
2024-01-06T23:57:39.260Z,102178.91
